Time;durP1;ratioP1;P1;durP2;ratioP2;P2;SDS_P1;SDS_P2;PMS_P1;PMS_P2;Temp;Humidity;BMP_temperature;BMP_pressure;BME280_temperature;BME280_humidity;BME280_pressure;Samples;Min_cycle;Max_cycle;Signal;HPM_P1;HPM_P2
2022/11/19 00:00:46;;;;;;;17.93;10.33;;;-1.60;99.90;;;;;;5023716;28;20204;-74
2022/11/19 00:03:17;;;;;;;18.07;10.30;;;-1.60;99.90;;;;;;5024855;28;20226;-74
2022/11/19 00:05:48;;;;;;;17.07;10.27;;;-1.70;99.90;;;;;;5026319;28;20263;-73
2022/11/19 00:08:16;;;;;;;17.93;9.27;;;-1.70;99.90;;;;;;5024246;28;20232;-75
2022/11/19 00:10:42;;;;;;;15.43;9.60;;;-1.60;99.90;;;;;;5023134;28;20204;-75
2022/11/19 00:13:08;;;;;;;16.43;9.60;;;-1.70;99.90;;;;;;5020058;28;20220;-72
2022/11/19 00:15:35;;;;;;;14.13;8.63;;;-1.70;99.90;;;;;;5026669;28;20216;-73
2022/11/19 00:18:02;;;;;;;12.80;8.40;;;-1.70;99.90;;;;;;5021907;28;20271;-74
2022/11/19 00:20:29;;;;;;;13.67;8.27;;;-1.70;99.90;;;;;;5021400;28;20302;-75
2022/11/19 00:22:59;;;;;;;15.20;9.30;;;-1.70;99.90;;;;;;5024177;28;20212;-76
2022/11/19 00:25:26;;;;;;;16.43;9.03;;;-1.70;99.90;;;;;;5028539;28;20215;-77
2022/11/19 00:27:52;;;;;;;14.60;8.63;;;-1.70;99.90;;;;;;5025215;28;20223;-75
2022/11/19 00:30:19;;;;;;;13.73;8.43;;;-1.70;99.90;;;;;;5024758;28;20198;-73
2022/11/19 00:32:45;;;;;;;15.43;8.73;;;-1.70;99.90;;;;;;5021228;28;20227;-76
2022/11/19 00:35:11;;;;;;;12.00;8.17;;;-1.70;99.90;;;;;;5026014;28;20213;-77
2022/11/19 00:37:38;;;;;;;14.70;7.87;;;-1.70;99.90;;;;;;5021201;28;20683;-74
2022/11/19 00:40:06;;;;;;;16.40;8.23;;;-1.70;99.90;;;;;;5019071;28;20706;-72
2022/11/19 00:42:33;;;;;;;12.53;7.83;;;-1.70;99.90;;;;;;5021144;28;20209;-74
2022/11/19 00:44:58;;;;;;;13.77;8.50;;;-1.70;99.90;;;;;;5025153;28;20195;-74
2022/11/19 00:47:24;;;;;;;17.60;10.50;;;-1.70;99.90;;;;;;5019235;28;20304;-75
2022/11/19 00:49:49;;;;;;;13.80;9.47;;;-1.70;99.90;;;;;;5022106;28;20219;-73
2022/11/19 00:52:16;;;;;;;14.83;9.47;;;-1.60;99.90;;;;;;4986223;28;1122876;-74
2022/11/19 00:54:41;;;;;;;16.50;10.50;;;-1.70;99.90;;;;;;5028996;28;20227;-73
2022/11/19 00:57:07;;;;;;;17.40;10.07;;;-1.70;99.90;;;;;;5023380;28;20275;-72
2022/11/19 00:59:32;;;;;;;16.40;9.90;;;-1.70;99.90;;;;;;5030541;28;20212;-71
2022/11/19 01:01:58;;;;;;;14.10;8.50;;;-1.70;99.90;;;;;;5032148;28;20293;-74
2022/11/19 01:04:24;;;;;;;15.80;9.90;;;-1.70;99.90;;;;;;5029151;28;20212;-74
2022/11/19 01:06:49;;;;;;;16.73;10.13;;;-1.70;99.90;;;;;;5022016;28;20217;-79
2022/11/19 01:09:15;;;;;;;18.23;10.77;;;-1.80;99.90;;;;;;5029702;28;20195;-71
2022/11/19 01:11:41;;;;;;;15.67;9.77;;;-1.70;99.90;;;;;;5030144;28;20581;-74
2022/11/19 01:14:07;;;;;;;21.03;10.27;;;-1.70;99.90;;;;;;5027180;28;20294;-70
2022/11/19 01:16:35;;;;;;;16.97;10.07;;;-1.80;99.90;;;;;;5026665;28;20602;-70
2022/11/19 01:19:01;;;;;;;16.57;10.30;;;-1.80;99.90;;;;;;5031077;28;20208;-70
2022/11/19 01:21:29;;;;;;;16.80;10.57;;;-1.80;99.90;;;;;;5024155;28;20223;-69
2022/11/19 01:23:56;;;;;;;15.73;10.53;;;-1.80;99.90;;;;;;5028480;28;20207;-69
2022/11/19 01:26:22;;;;;;;18.73;11.17;;;-1.80;99.90;;;;;;5030507;28;20834;-69
2022/11/19 01:28:47;;;;;;;18.70;10.83;;;-1.80;99.90;;;;;;5029220;28;20220;-69
2022/11/19 01:31:22;;;;;;;16.60;11.07;;;-1.80;99.90;;;;;;5026360;28;20209;-69
2022/11/19 01:33:48;;;;;;;18.33;11.43;;;-1.80;99.90;;;;;;5031508;28;20305;-70
2022/11/19 01:36:16;;;;;;;17.30;11.30;;;-1.80;99.90;;;;;;5026283;28;20308;-69
2022/11/19 01:38:42;;;;;;;20.03;11.30;;;-1.80;99.90;;;;;;5031858;28;20187;-69
2022/11/19 01:41:08;;;;;;;17.90;11.70;;;-1.80;99.90;;;;;;5029927;28;20224;-69
2022/11/19 01:44:07;;;;;;;16.47;11.20;;;-1.80;99.90;;;;;;5030339;28;20238;-70
2022/11/19 01:46:37;;;;;;;19.23;11.43;;;-1.90;99.90;;;;;;5004151;28;20217;-69
2022/11/19 01:49:16;;;;;;;17.10;10.40;;;-1.90;99.90;;;;;;5024201;28;20212;-69
2022/11/19 01:51:53;;;;;;;19.43;11.40;;;-1.90;99.90;;;;;;5027147;28;20212;-70
2022/11/19 01:54:27;;;;;;;16.30;11.50;;;-1.90;99.90;;;;;;5028062;28;20180;-69
2022/11/19 01:57:00;;;;;;;15.87;10.57;;;-2.00;99.90;;;;;;5026973;28;20265;-67
2022/11/19 01:59:28;;;;;;;15.37;9.97;;;-2.00;99.90;;;;;;5029735;28;20213;-69
2022/11/19 02:01:54;;;;;;;15.80;10.43;;;-2.00;99.90;;;;;;5043008;28;20212;-68
2022/11/19 02:04:21;;;;;;;22.93;11.73;;;-2.00;99.90;;;;;;5025693;28;20744;-69
2022/11/19 02:06:47;;;;;;;23.47;12.57;;;-2.00;99.90;;;;;;5031029;28;20228;-69
2022/11/19 02:09:13;;;;;;;21.63;12.53;;;-2.00;99.90;;;;;;5026602;28;20180;-69
2022/11/19 02:11:44;;;;;;;22.83;11.77;;;-2.00;99.90;;;;;;5029248;28;20180;-70
2022/11/19 02:14:19;;;;;;;20.37;11.70;;;-2.10;99.90;;;;;;5030753;28;20266;-69
2022/11/19 02:17:17;;;;;;;20.97;11.37;;;-2.10;99.90;;;;;;5029095;28;20234;-69
2022/11/19 02:19:55;;;;;;;20.97;11.00;;;-2.10;99.90;;;;;;5028524;28;20209;-69
2022/11/19 02:22:45;;;;;;;26.70;12.30;;;-2.10;99.90;;;;;;5026112;28;20219;-69
2022/11/19 02:25:24;;;;;;;24.17;10.70;;;-2.10;99.90;;;;;;5026750;28;20214;-69
2022/11/19 02:28:27;;;;;;;22.27;10.43;;;-2.20;99.90;;;;;;5030163;28;20220;-69
2022/11/19 02:31:09;;;;;;;20.53;10.33;;;-2.30;99.90;;;;;;5025871;28;20706;-66
2022/11/19 02:33:39;;;;;;;15.87;9.53;;;-2.30;99.90;;;;;;5028603;28;20227;-69
2022/11/19 02:36:34;;;;;;;16.27;9.87;;;-2.20;99.90;;;;;;5023954;28;20328;-69
2022/11/19 02:39:18;;;;;;;16.33;10.27;;;-2.30;99.90;;;;;;5024881;28;20217;-70
2022/11/19 02:41:57;;;;;;;17.73;10.00;;;-2.20;99.90;;;;;;5027236;28;20589;-70
2022/11/19 02:47:21;;;;;;;20.83;10.20;;;-2.20;99.90;;;;;;5024798;28;20251;-70
2022/11/19 02:49:51;;;;;;;18.20;9.17;;;-2.20;99.90;;;;;;5022811;28;20219;-70
2022/11/19 02:52:17;;;;;;;18.67;10.17;;;-2.20;99.90;;;;;;5026968;28;20219;-70
2022/11/19 02:54:43;;;;;;;18.50;9.50;;;-2.20;99.90;;;;;;5021470;28;20243;-70
2022/11/19 02:57:10;;;;;;;16.13;9.70;;;-2.20;99.90;;;;;;5028224;28;20188;-70
2022/11/19 03:05:32;;;;;;;13.70;9.13;;;-2.30;99.90;;;;;;5022692;28;20241;-70
2022/11/19 03:07:58;;;;;;;16.73;9.70;;;-2.30;99.90;;;;;;5022000;28;20216;-70
2022/11/19 03:10:31;;;;;;;16.60;9.17;;;-2.30;99.90;;;;;;5029239;28;20219;-69
2022/11/19 03:18:53;;;;;;;15.97;9.87;;;-2.20;99.90;;;;;;5024576;28;20227;-69
2022/11/19 03:21:29;;;;;;;14.80;9.73;;;-2.30;99.90;;;;;;5022561;28;20187;-69
2022/11/19 03:24:07;;;;;;;15.63;9.30;;;-2.30;99.90;;;;;;5026048;28;20176;-69
2022/11/19 03:26:38;;;;;;;13.50;8.90;;;-2.30;99.90;;;;;;5023505;28;20212;-69
2022/11/19 03:29:08;;;;;;;12.13;8.07;;;-2.30;99.90;;;;;;5020955;28;20609;-69
2022/11/19 03:31:35;;;;;;;11.87;8.07;;;-2.20;99.90;;;;;;5022301;28;20207;-69
2022/11/19 03:34:07;;;;;;;14.93;9.03;;;-2.20;99.90;;;;;;5018172;28;20710;-69
2022/11/19 03:36:39;;;;;;;15.63;8.23;;;-2.30;99.90;;;;;;5018198;28;20228;-69
2022/11/19 03:39:11;;;;;;;13.97;7.97;;;-2.30;99.90;;;;;;5022249;28;20184;-69
2022/11/19 03:41:39;;;;;;;13.40;8.33;;;-2.30;99.90;;;;;;5021709;28;20689;-69
2022/11/19 03:44:31;;;;;;;14.73;8.73;;;-2.30;99.90;;;;;;5021802;28;20739;-69
2022/11/19 03:47:19;;;;;;;13.03;8.13;;;-2.20;99.90;;;;;;5012492;28;20224;-68
2022/11/19 03:49:49;;;;;;;14.90;8.10;;;-2.30;99.90;;;;;;5025215;28;20228;-71
2022/11/19 03:52:18;;;;;;;15.23;8.90;;;-2.30;99.90;;;;;;5019250;28;20814;-69
2022/11/19 03:54:44;;;;;;;14.63;8.63;;;-2.20;99.90;;;;;;5020971;28;20223;-69
2022/11/19 03:57:16;;;;;;;16.67;8.43;;;-2.20;99.90;;;;;;5019697;28;20715;-69
2022/11/19 03:59:42;;;;;;;17.80;8.57;;;-2.20;99.90;;;;;;5022511;28;20187;-69
2022/11/19 04:02:10;;;;;;;15.73;7.77;;;-2.20;99.90;;;;;;5018342;28;20219;-69
2022/11/19 04:04:36;;;;;;;13.20;7.27;;;-2.20;99.90;;;;;;5021772;28;20285;-69
2022/11/19 04:07:17;;;;;;;16.00;9.37;;;-2.20;99.90;;;;;;5020983;28;20224;-69
2022/11/19 04:09:44;;;;;;;11.20;7.00;;;-2.20;99.90;;;;;;5019346;28;20271;-69
2022/11/19 04:12:18;;;;;;;13.63;7.90;;;-2.20;99.90;;;;;;5018722;28;20686;-69
2022/11/19 04:14:44;;;;;;;12.50;7.37;;;-2.20;99.90;;;;;;5022707;28;20245;-69
2022/11/19 04:17:10;;;;;;;11.63;6.97;;;-2.20;99.90;;;;;;5020927;28;20244;-69
2022/11/19 04:19:35;;;;;;;11.43;7.47;;;-2.20;99.90;;;;;;5023853;28;20738;-69
2022/11/19 04:22:01;;;;;;;10.80;6.77;;;-2.20;99.90;;;;;;5019641;28;20216;-70
2022/11/19 04:24:27;;;;;;;12.97;7.23;;;-2.20;99.90;;;;;;5019107;28;20235;-70
2022/11/19 04:26:52;;;;;;;12.33;7.53;;;-2.20;99.90;;;;;;5022636;28;20216;-68
2022/11/19 04:29:18;;;;;;;11.00;7.03;;;-2.20;99.90;;;;;;5021725;28;20568;-70
2022/11/19 04:31:43;;;;;;;10.73;6.47;;;-2.20;99.90;;;;;;5022657;28;20639;-70
2022/11/19 04:34:09;;;;;;;13.17;7.40;;;-2.20;99.90;;;;;;5024011;28;20303;-70
2022/11/19 04:36:35;;;;;;;12.00;7.37;;;-2.20;99.90;;;;;;5022919;28;20229;-70
2022/11/19 04:39:01;;;;;;;11.67;6.80;;;-2.20;99.90;;;;;;5021173;28;20219;-69
2022/11/19 04:41:26;;;;;;;13.67;7.97;;;-2.20;99.90;;;;;;5025412;28;20269;-69
2022/11/19 04:43:52;;;;;;;13.57;7.60;;;-2.20;99.90;;;;;;5022022;28;20215;-69
2022/11/19 04:46:18;;;;;;;12.70;8.30;;;-2.30;99.90;;;;;;5023348;28;20311;-70
2022/11/19 04:48:43;;;;;;;14.37;8.33;;;-2.20;99.90;;;;;;5023815;28;20212;-69
2022/11/19 04:51:09;;;;;;;11.20;8.27;;;-2.30;99.90;;;;;;5024724;28;20189;-70
2022/11/19 04:53:34;;;;;;;17.47;8.30;;;-2.20;99.90;;;;;;5025716;28;20924;-70
2022/11/19 04:56:00;;;;;;;16.17;9.47;;;-2.20;99.90;;;;;;5021665;28;20223;-70
2022/11/19 04:58:26;;;;;;;13.53;8.13;;;-2.20;99.90;;;;;;5026524;28;20312;-69
2022/11/19 05:00:51;;;;;;;15.83;8.90;;;-2.20;99.90;;;;;;5026489;28;20688;-70
2022/11/19 05:03:17;;;;;;;14.93;9.67;;;-2.30;99.90;;;;;;5021394;28;20284;-69
2022/11/19 05:05:43;;;;;;;16.07;8.20;;;-2.20;99.90;;;;;;5025529;28;20190;-70
2022/11/19 05:08:08;;;;;;;12.97;8.37;;;-2.20;99.90;;;;;;5022500;28;20217;-69
2022/11/19 05:10:34;;;;;;;14.63;9.27;;;-2.20;99.90;;;;;;5021773;28;20222;-69
2022/11/19 05:12:59;;;;;;;11.60;8.27;;;-2.30;99.90;;;;;;5022462;28;20714;-69
2022/11/19 05:15:25;;;;;;;15.77;9.17;;;-2.30;99.90;;;;;;5024822;28;20678;-69
2022/11/19 05:17:51;;;;;;;14.63;8.73;;;-2.40;99.90;;;;;;5021926;28;20188;-70
2022/11/19 05:20:16;;;;;;;17.03;8.63;;;-2.30;99.90;;;;;;5022161;28;20201;-70
2022/11/19 05:22:42;;;;;;;13.70;8.90;;;-2.40;99.90;;;;;;5023081;28;20227;-69
2022/11/19 05:25:08;;;;;;;14.20;8.87;;;-2.40;99.90;;;;;;5020710;28;20766;-69
2022/11/19 05:27:34;;;;;;;15.43;8.80;;;-2.30;99.90;;;;;;5026341;28;20634;-69
2022/11/19 05:29:59;;;;;;;14.13;8.40;;;-2.40;99.90;;;;;;5022096;28;20239;-69
2022/11/19 05:32:25;;;;;;;14.53;8.70;;;-2.30;99.90;;;;;;5022994;28;20722;-69
2022/11/19 05:34:51;;;;;;;14.00;8.40;;;-2.30;99.90;;;;;;5020858;28;20233;-69
2022/11/19 05:37:17;;;;;;;12.37;7.17;;;-2.30;99.90;;;;;;5027803;28;20219;-69
2022/11/19 05:39:42;;;;;;;13.23;8.30;;;-2.30;99.90;;;;;;5030590;28;20634;-70
2022/11/19 05:42:08;;;;;;;13.97;8.53;;;-2.30;99.90;;;;;;5026177;28;20213;-69
2022/11/19 05:44:33;;;;;;;14.33;8.80;;;-2.30;99.90;;;;;;5025638;28;20670;-69
2022/11/19 05:46:59;;;;;;;17.40;8.37;;;-2.30;99.90;;;;;;5026557;28;20315;-69
2022/11/19 05:49:25;;;;;;;14.17;8.30;;;-2.40;99.90;;;;;;5026616;28;20587;-69
2022/11/19 05:51:50;;;;;;;12.87;8.23;;;-2.30;99.90;;;;;;5023566;28;20220;-69
2022/11/19 05:54:16;;;;;;;13.93;8.27;;;-2.30;99.90;;;;;;5028568;28;20749;-70
2022/11/19 05:56:42;;;;;;;15.93;8.80;;;-2.30;99.90;;;;;;5024394;28;20685;-69
2022/11/19 05:59:07;;;;;;;11.43;7.53;;;-2.30;99.90;;;;;;5029092;28;20220;-70
2022/11/19 06:01:33;;;;;;;12.77;7.63;;;-2.30;99.90;;;;;;5029418;28;20211;-70
2022/11/19 06:03:59;;;;;;;14.60;8.53;;;-2.30;99.90;;;;;;5022583;28;20259;-70
2022/11/19 06:06:24;;;;;;;12.07;7.30;;;-2.30;99.90;;;;;;5028250;28;20192;-70
2022/11/19 06:08:50;;;;;;;13.77;7.97;;;-2.30;99.90;;;;;;5025339;28;20725;-70
2022/11/19 06:14:00;;;;;;;10.43;6.87;;;-2.20;99.90;;;;;;5027222;28;20270;-69
2022/11/19 06:16:26;;;;;;;14.23;7.53;;;-2.20;99.90;;;;;;5025636;28;20223;-70
2022/11/19 06:18:52;;;;;;;11.53;7.87;;;-2.20;99.90;;;;;;5026901;28;20216;-69
2022/11/19 06:21:18;;;;;;;11.50;7.97;;;-2.20;99.90;;;;;;5027944;28;20366;-69
2022/11/19 06:23:43;;;;;;;10.20;7.07;;;-2.20;99.90;;;;;;5026353;28;20675;-70
2022/11/19 06:26:10;;;;;;;14.10;7.30;;;-2.20;99.90;;;;;;5029638;28;20270;-69
2022/11/19 06:28:36;;;;;;;9.90;5.83;;;-2.20;99.90;;;;;;5025122;28;20214;-70
2022/11/19 06:31:02;;;;;;;11.80;7.07;;;-2.20;99.90;;;;;;5022121;28;20212;-69
2022/11/19 06:33:27;;;;;;;10.17;6.70;;;-2.20;99.90;;;;;;5031804;22;20229;-69
2022/11/19 06:35:53;;;;;;;9.17;6.50;;;-2.20;99.90;;;;;;5006985;28;20266;-70
2022/11/19 06:38:18;;;;;;;11.20;6.73;;;-2.20;99.90;;;;;;5008265;28;20576;-70
2022/11/19 06:40:44;;;;;;;11.07;6.30;;;-2.20;99.90;;;;;;5008951;28;20307;-70
2022/11/19 06:43:10;;;;;;;8.10;5.47;;;-2.20;99.90;;;;;;5005753;28;20235;-68
2022/11/19 06:45:36;;;;;;;10.67;7.00;;;-2.20;99.90;;;;;;5007445;28;20825;-71
2022/11/19 06:48:02;;;;;;;9.87;6.30;;;-2.10;99.90;;;;;;5006949;28;20231;-71
2022/11/19 06:50:28;;;;;;;10.90;5.43;;;-2.10;99.90;;;;;;5003439;28;20281;-69
2022/11/19 06:52:53;;;;;;;8.43;5.60;;;-2.00;99.90;;;;;;5001940;28;20225;-67
2022/11/19 06:55:19;;;;;;;10.03;5.67;;;-2.00;99.90;;;;;;5007426;28;20220;-68
2022/11/19 06:57:44;;;;;;;9.43;5.97;;;-2.00;99.90;;;;;;5001907;28;20359;-68
2022/11/19 07:00:11;;;;;;;8.57;5.83;;;-2.00;99.90;;;;;;5009696;28;20239;-69
2022/11/19 07:02:37;;;;;;;7.20;4.97;;;-2.00;99.90;;;;;;5006256;28;20207;-69
2022/11/19 07:05:03;;;;;;;9.07;6.23;;;-1.90;99.90;;;;;;5001425;28;20695;-70
2022/11/19 07:07:29;;;;;;;10.50;5.67;;;-1.90;99.90;;;;;;5007016;28;20948;-69
2022/11/19 07:09:54;;;;;;;11.40;5.83;;;-1.80;99.90;;;;;;5002876;28;20279;-69
2022/11/19 07:12:20;;;;;;;9.60;5.80;;;-1.70;99.90;;;;;;5010039;28;20304;-69
2022/11/19 07:14:45;;;;;;;8.57;5.83;;;-1.70;99.90;;;;;;5007615;28;20201;-69
2022/11/19 07:17:11;;;;;;;9.03;4.67;;;-1.60;99.90;;;;;;5004073;28;20657;-69
2022/11/19 07:19:37;;;;;;;9.63;5.60;;;-1.70;99.90;;;;;;5006473;28;20205;-69
2022/11/19 07:22:02;;;;;;;9.93;5.20;;;-1.60;99.90;;;;;;5005278;28;20215;-69
2022/11/19 07:24:28;;;;;;;8.27;4.80;;;-1.60;99.90;;;;;;5007652;28;20275;-69
2022/11/19 07:26:56;;;;;;;8.50;5.20;;;-1.60;99.90;;;;;;5006221;28;20181;-67
2022/11/19 07:29:22;;;;;;;9.97;5.10;;;-1.60;99.90;;;;;;5004095;28;20209;-69
2022/11/19 07:31:49;;;;;;;10.40;5.57;;;-1.50;99.90;;;;;;5002617;28;20213;-69
2022/11/19 07:34:15;;;;;;;8.63;5.70;;;-1.30;99.90;;;;;;5007768;28;20726;-70
2022/11/19 07:36:41;;;;;;;10.77;5.53;;;-1.20;99.90;;;;;;5003499;28;20240;-70
2022/11/19 07:39:07;;;;;;;9.37;5.97;;;-1.00;99.90;;;;;;5002438;28;20530;-70
2022/11/19 07:44:17;;;;;;;8.63;5.30;;;-0.40;99.90;;;;;;5004365;28;20266;-68
2022/11/19 07:46:43;;;;;;;8.87;5.03;;;-0.10;99.90;;;;;;5006050;28;20320;-69
2022/11/19 07:49:08;;;;;;;6.07;4.70;;;0.00;99.90;;;;;;5004917;28;20220;-69
2022/11/19 07:51:34;;;;;;;8.97;5.33;;;0.20;99.90;;;;;;5002482;28;20720;-70
2022/11/19 07:54:00;;;;;;;7.83;4.83;;;0.20;99.90;;;;;;5006847;28;20232;-70
2022/11/19 07:56:25;;;;;;;8.73;4.70;;;0.40;99.90;;;;;;5005349;28;20235;-69
2022/11/19 07:58:51;;;;;;;8.33;5.07;;;0.50;99.90;;;;;;5000879;28;20281;-69
2022/11/19 08:01:22;;;;;;;7.00;4.47;;;0.40;99.90;;;;;;5008911;28;20709;-70
2022/11/19 08:03:50;;;;;;;7.33;4.77;;;0.30;99.90;;;;;;5001080;28;20309;-70
2022/11/19 08:06:17;;;;;;;6.47;4.50;;;0.20;99.90;;;;;;5007376;28;20198;-70
2022/11/19 08:08:43;;;;;;;7.73;4.90;;;0.00;99.90;;;;;;5004184;28;20280;-69
2022/11/19 08:11:11;;;;;;;6.20;4.10;;;0.00;99.90;;;;;;5003902;28;20212;-70
2022/11/19 08:13:38;;;;;;;8.87;4.70;;;-0.10;99.90;;;;;;5005848;28;20220;-69
2022/11/19 08:16:06;;;;;;;6.97;4.53;;;0.00;99.90;;;;;;5004613;28;20754;-70
2022/11/19 08:18:32;;;;;;;6.53;4.57;;;-0.10;99.90;;;;;;5002241;28;20226;-70
2022/11/19 08:21:09;;;;;;;7.63;4.77;;;-0.20;99.90;;;;;;5007747;28;20182;-69
2022/11/19 08:23:36;;;;;;;8.07;5.17;;;-0.10;99.90;;;;;;5003402;28;20225;-69
2022/11/19 08:26:03;;;;;;;9.27;5.40;;;-0.10;99.90;;;;;;5000526;28;20266;-69
2022/11/19 08:28:29;;;;;;;8.30;4.67;;;-0.10;99.90;;;;;;5010734;28;20217;-69
2022/11/19 08:30:56;;;;;;;9.57;5.30;;;-0.10;99.90;;;;;;5002998;28;20289;-69
2022/11/19 08:33:22;;;;;;;9.50;5.37;;;-0.10;99.90;;;;;;5006541;28;20216;-69
2022/11/19 08:35:48;;;;;;;6.33;3.90;;;-0.10;99.90;;;;;;5008194;28;20199;-69
2022/11/19 08:38:13;;;;;;;9.03;5.20;;;0.00;99.90;;;;;;5005759;28;20202;-70
2022/11/19 08:40:39;;;;;;;5.87;4.57;;;0.20;99.90;;;;;;5005178;28;20225;-70
2022/11/19 08:43:04;;;;;;;6.67;5.00;;;0.30;99.90;;;;;;5004587;28;20212;-70
2022/11/19 08:45:33;;;;;;;7.87;4.80;;;0.40;99.90;;;;;;5002635;28;20211;-70
2022/11/19 08:48:00;;;;;;;7.17;4.50;;;0.50;99.90;;;;;;5006478;28;20181;-70
2022/11/19 08:50:27;;;;;;;5.17;3.67;;;0.50;99.90;;;;;;5008781;28;20228;-69
2022/11/19 08:53:04;;;;;;;7.73;4.33;;;0.40;99.90;;;;;;4999529;28;20216;-68
2022/11/19 08:55:30;;;;;;;6.27;4.03;;;0.50;99.90;;;;;;5007648;28;20300;-69
2022/11/19 08:58:03;;;;;;;5.60;3.70;;;0.50;99.90;;;;;;5004211;28;20211;-68
2022/11/19 09:00:30;;;;;;;5.27;4.07;;;0.60;99.90;;;;;;5004341;28;20230;-70
2022/11/19 09:02:56;;;;;;;7.13;3.70;;;0.60;99.90;;;;;;5004691;28;20340;-67
2022/11/19 09:05:21;;;;;;;5.77;4.00;;;0.60;99.90;;;;;;5005054;28;20219;-70
2022/11/19 09:07:47;;;;;;;6.07;3.80;;;0.50;99.90;;;;;;5009542;28;20205;-72
2022/11/19 09:10:13;;;;;;;5.20;3.67;;;0.40;99.90;;;;;;5004619;28;20213;-70
2022/11/19 09:12:38;;;;;;;6.37;3.83;;;0.50;99.90;;;;;;5005040;28;20310;-69
2022/11/19 09:15:05;;;;;;;5.90;3.50;;;0.60;99.90;;;;;;5009039;28;20289;-69
2022/11/19 09:17:30;;;;;;;6.30;4.03;;;0.50;99.90;;;;;;5010075;28;20578;-69
2022/11/19 09:19:56;;;;;;;6.40;3.40;;;0.50;99.90;;;;;;5013406;28;20287;-68
2022/11/19 09:22:22;;;;;;;4.33;3.47;;;0.50;99.90;;;;;;5010360;28;20216;-70
2022/11/19 09:24:47;;;;;;;6.57;3.87;;;0.50;99.90;;;;;;5004606;28;20251;-69
2022/11/19 09:27:13;;;;;;;5.13;3.40;;;0.60;99.90;;;;;;5008503;28;20183;-70
2022/11/19 09:29:39;;;;;;;5.40;3.50;;;0.60;99.90;;;;;;5010673;28;20183;-69
2022/11/19 09:32:05;;;;;;;5.10;3.30;;;0.70;99.90;;;;;;5005355;28;20602;-70
2022/11/19 09:34:30;;;;;;;5.00;3.20;;;0.70;99.90;;;;;;5008851;28;20220;-70
2022/11/19 09:36:57;;;;;;;7.23;3.63;;;0.70;99.90;;;;;;5007419;28;20212;-66
2022/11/19 09:39:23;;;;;;;7.83;4.20;;;0.70;99.90;;;;;;5007725;28;20701;-70
2022/11/19 09:42:02;;;;;;;5.50;4.03;;;0.70;99.90;;;;;;5008449;28;20264;-68
2022/11/19 09:44:54;;;;;;;5.80;3.53;;;0.70;99.90;;;;;;5006013;28;20205;-68
2022/11/19 09:47:42;;;;;;;5.57;3.60;;;0.80;99.90;;;;;;5008887;28;20262;-69
2022/11/19 09:50:18;;;;;;;6.40;3.70;;;0.90;99.90;;;;;;5009187;28;20215;-69
2022/11/19 09:53:15;;;;;;;6.67;3.40;;;1.00;99.90;;;;;;5006236;28;20595;-69
2022/11/19 09:55:44;;;;;;;6.07;3.67;;;1.00;99.90;;;;;;4999377;28;20216;-71
2022/11/19 09:58:48;;;;;;;6.23;3.37;;;1.10;99.90;;;;;;5008020;28;20640;-71
2022/11/19 10:01:16;;;;;;;4.40;3.23;;;1.00;99.90;;;;;;5006126;28;20209;-71
2022/11/19 10:03:50;;;;;;;3.30;2.63;;;1.00;99.90;;;;;;5007074;28;20220;-71
2022/11/19 10:06:27;;;;;;;4.33;2.87;;;1.00;99.90;;;;;;5009415;28;20175;-71
2022/11/19 10:09:14;;;;;;;6.70;4.10;;;1.00;99.90;;;;;;5007768;28;20187;-69
2022/11/19 10:11:45;;;;;;;5.40;3.40;;;1.10;99.90;;;;;;5005932;28;20208;-72
2022/11/19 10:14:37;;;;;;;4.50;3.57;;;1.10;99.90;;;;;;5004509;28;20211;-71
2022/11/19 10:17:21;;;;;;;5.43;3.13;;;1.10;99.90;;;;;;5010327;28;20226;-71
2022/11/19 10:20:17;;;;;;;4.67;2.80;;;1.10;99.90;;;;;;5004967;28;20227;-71
2022/11/19 10:23:17;;;;;;;6.07;3.27;;;1.10;99.90;;;;;;5012089;28;20215;-71
2022/11/19 10:25:55;;;;;;;4.80;3.23;;;1.10;99.90;;;;;;5010019;28;20230;-71
2022/11/19 10:28:24;;;;;;;3.70;2.60;;;1.10;99.90;;;;;;5005550;28;20213;-71
2022/11/19 10:30:54;;;;;;;4.53;2.93;;;1.10;99.90;;;;;;5008706;28;20208;-72
2022/11/19 10:33:31;;;;;;;4.97;2.90;;;1.20;99.90;;;;;;5011121;28;20694;-70
2022/11/19 10:36:03;;;;;;;4.70;2.80;;;1.30;99.90;;;;;;5006896;28;20783;-69
2022/11/19 10:38:33;;;;;;;5.33;3.03;;;1.20;99.90;;;;;;5009591;28;20206;-69
2022/11/19 10:41:12;;;;;;;6.00;3.40;;;1.20;99.90;;;;;;5009358;28;20208;-69
2022/11/19 10:44:35;;;;;;;4.77;3.10;;;1.20;99.90;;;;;;5007320;28;20208;-70
2022/11/19 10:46:59;;;;;;;5.80;3.40;;;1.30;99.90;;;;;;5009747;28;20729;-69
2022/11/19 10:49:25;;;;;;;5.37;3.37;;;1.20;99.90;;;;;;5012807;28;20212;-68
2022/11/19 10:51:51;;;;;;;4.87;3.03;;;1.40;99.90;;;;;;5008637;28;20606;-68
2022/11/19 10:54:26;;;;;;;5.43;3.27;;;1.40;99.90;;;;;;5006436;28;20173;-69
2022/11/19 10:56:54;;;;;;;4.77;3.07;;;1.60;99.90;;;;;;5005861;28;20206;-69
2022/11/19 10:59:23;;;;;;;6.13;3.30;;;1.70;99.90;;;;;;5010050;28;20237;-69
2022/11/19 11:02:14;;;;;;;6.07;3.27;;;1.60;99.90;;;;;;5008246;28;20259;-69
2022/11/19 11:05:01;;;;;;;5.57;3.20;;;1.60;99.90;;;;;;4996795;28;20580;-69
2022/11/19 11:07:47;;;;;;;5.47;3.63;;;1.60;99.90;;;;;;5010617;28;20213;-69
2022/11/19 11:10:33;;;;;;;5.83;3.90;;;1.60;99.90;;;;;;5003557;28;20216;-68
2022/11/19 11:16:17;;;;;;;6.73;4.07;;;1.50;99.90;;;;;;5005441;28;20250;-67
2022/11/19 11:18:44;;;;;;;6.63;3.33;;;1.50;99.90;;;;;;5006752;28;20610;-69
2022/11/19 11:21:29;;;;;;;7.03;3.97;;;1.60;99.90;;;;;;5007259;28;20177;-68
2022/11/19 11:23:55;;;;;;;6.60;4.53;;;1.60;99.90;;;;;;5005930;28;20756;-69
2022/11/19 11:26:24;;;;;;;6.77;4.17;;;1.70;99.90;;;;;;5008585;28;20289;-69
2022/11/19 11:29:03;;;;;;;6.00;4.10;;;1.80;99.90;;;;;;5007888;28;20247;-69
2022/11/19 11:31:40;;;;;;;6.70;4.13;;;1.70;99.90;;;;;;5005593;28;20695;-71
2022/11/19 11:34:13;;;;;;;6.33;4.20;;;1.80;99.90;;;;;;5007594;28;20220;-70
2022/11/19 11:36:39;;;;;;;6.60;4.00;;;2.00;99.90;;;;;;5007365;28;20235;-72
2022/11/19 11:39:05;;;;;;;6.20;4.37;;;2.00;99.90;;;;;;5003804;28;20196;-72
2022/11/19 11:41:39;;;;;;;6.10;3.70;;;1.80;99.90;;;;;;5007406;28;20223;-70
2022/11/19 11:44:19;;;;;;;6.40;4.20;;;1.90;99.90;;;;;;5007080;28;20224;-69
2022/11/19 11:46:59;;;;;;;5.77;4.20;;;2.00;99.90;;;;;;5003317;28;20219;-69
2022/11/19 11:49:36;;;;;;;7.77;4.40;;;2.00;99.90;;;;;;5002934;28;20554;-69
2022/11/19 11:52:08;;;;;;;8.63;4.10;;;2.10;99.90;;;;;;5003553;28;20707;-70
2022/11/19 11:54:35;;;;;;;5.87;3.90;;;2.00;99.90;;;;;;5002362;28;20706;-69
2022/11/19 11:57:16;;;;;;;8.17;4.93;;;2.00;99.90;;;;;;5006244;28;20195;-70
2022/11/19 11:59:41;;;;;;;7.10;4.50;;;2.00;99.90;;;;;;5002109;28;20223;-69
2022/11/19 12:02:19;;;;;;;6.27;4.03;;;2.10;99.90;;;;;;5003020;28;20299;-70
2022/11/19 12:04:44;;;;;;;5.70;4.30;;;2.10;99.90;;;;;;5005315;28;20212;-68
2022/11/19 12:07:26;;;;;;;6.00;4.20;;;2.20;99.90;;;;;;5007397;28;20220;-68
2022/11/19 12:10:02;;;;;;;8.97;4.47;;;2.20;99.90;;;;;;5003263;28;20758;-68
2022/11/19 12:12:27;;;;;;;5.60;3.90;;;2.40;99.90;;;;;;5006943;28;20267;-70
2022/11/19 12:15:08;;;;;;;9.03;4.97;;;2.30;99.90;;;;;;5009451;28;20216;-71
2022/11/19 12:18:00;;;;;;;7.00;4.33;;;2.40;99.90;;;;;;5020520;28;20567;-69
2022/11/19 12:20:38;;;;;;;5.50;3.97;;;2.40;99.90;;;;;;5007520;28;20874;-70
2022/11/19 12:23:19;;;;;;;5.47;3.83;;;2.50;99.90;;;;;;5004809;28;20226;-72
2022/11/19 12:26:17;;;;;;;7.70;5.13;;;2.60;99.90;;;;;;5007726;28;20236;-72
2022/11/19 12:29:16;;;;;;;7.50;4.07;;;2.60;99.90;;;;;;5002107;28;20300;-70
2022/11/19 12:32:03;;;;;;;9.17;4.73;;;2.50;99.90;;;;;;5004188;28;20220;-69
2022/11/19 12:34:58;;;;;;;7.83;4.50;;;2.50;99.90;;;;;;5025986;23;20267;-68
2022/11/19 12:37:43;;;;;;;7.30;4.63;;;2.50;99.90;;;;;;5022989;28;20227;-69
2022/11/19 12:40:43;;;;;;;8.07;5.07;;;2.40;99.90;;;;;;5024490;28;20210;-69
2022/11/19 12:43:36;;;;;;;8.60;5.40;;;2.30;99.90;;;;;;5038176;28;20288;-66
2022/11/19 12:46:29;;;;;;;8.73;5.43;;;2.50;99.90;;;;;;5007204;28;20217;-69
2022/11/19 12:49:27;;;;;;;8.30;4.63;;;2.40;99.90;;;;;;5011505;28;20209;-69
2022/11/19 12:51:53;;;;;;;7.53;4.60;;;2.50;99.90;;;;;;5023009;28;20600;-69
2022/11/19 12:54:43;;;;;;;8.47;4.90;;;2.40;99.90;;;;;;5010192;28;20276;-68
2022/11/19 12:57:37;;;;;;;8.40;5.63;;;2.40;99.90;;;;;;5007675;28;20240;-68
2022/11/19 13:00:12;;;;;;;10.70;5.37;;;2.50;99.90;;;;;;5010380;28;20177;-68
2022/11/19 13:03:01;;;;;;;7.73;4.57;;;2.50;99.90;;;;;;5011889;28;20586;-68
2022/11/19 13:05:54;;;;;;;9.70;6.10;;;2.60;99.90;;;;;;5011741;28;20221;-68
2022/11/19 13:08:29;;;;;;;10.30;5.07;;;2.50;99.90;;;;;;5009326;28;20711;-68
2022/11/19 13:11:23;;;;;;;8.67;5.37;;;2.50;99.90;;;;;;5006926;28;20268;-68
2022/11/19 13:13:58;;;;;;;10.10;5.40;;;2.50;99.90;;;;;;5007522;28;20695;-69
2022/11/19 13:16:25;;;;;;;9.40;6.30;;;2.60;99.90;;;;;;5005884;28;20220;-70
2022/11/19 13:18:54;;;;;;;8.83;5.90;;;2.60;99.90;;;;;;5009121;28;20255;-70
2022/11/19 13:21:44;;;;;;;7.57;5.50;;;2.50;99.90;;;;;;5004961;28;20180;-71
2022/11/19 13:24:39;;;;;;;8.00;5.30;;;2.40;99.90;;;;;;5007596;28;20230;-71
2022/11/19 13:27:11;;;;;;;8.53;5.70;;;2.30;99.90;;;;;;5020565;28;20639;-70